Time;durP1;ratioP1;P1;durP2;ratioP2;P2;SDS_P1;SDS_P2;PMS_P1;PMS_P2;Temp;Humidity;BMP_temperature;BMP_pressure;BME280_temperature;BME280_humidity;BME280_pressure;Samples;Min_cycle;Max_cycle;Signal;HPM_P1;HPM_P2
2023/06/24 00:00:59;;;;;;;2.70;2.50;;;;;;;;;;5098649;28;20211;-59
2023/06/24 00:03:27;;;;;;;2.70;2.50;;;;;;;;;;5099013;28;20200;-59
2023/06/24 00:05:56;;;;;;;2.72;2.53;;;;;;;;;;5098751;28;20601;-59
2023/06/24 00:08:34;;;;;;;5.78;2.70;;;;;;;;;;5098880;28;20295;-59
2023/06/24 00:11:02;;;;;;;2.63;2.47;;;;;;;;;;5098122;28;20204;-59
2023/06/24 00:13:29;;;;;;;2.80;2.60;;;;;;;;;;5099067;28;20203;-59
2023/06/24 00:15:57;;;;;;;4.93;2.80;;;;;;;;;;5098325;28;20227;-59
2023/06/24 00:18:29;;;;;;;2.30;2.20;;;;;;;;;;5098680;28;20211;-59
2023/06/24 00:20:57;;;;;;;2.53;2.28;;;;;;;;;;5098373;28;20211;-59
2023/06/24 00:23:26;;;;;;;2.47;2.35;;;;;;;;;;5098945;28;20203;-59
2023/06/24 00:25:54;;;;;;;2.22;2.10;;;;;;;;;;5098471;28;20227;-59
2023/06/24 00:28:22;;;;;;;2.50;2.30;;;;;;;;;;5098293;28;20589;-59
2023/06/24 00:30:50;;;;;;;2.50;2.30;;;;;;;;;;5098364;28;20268;-59
2023/06/24 00:33:19;;;;;;;3.13;2.20;;;;;;;;;;5097910;28;20215;-59
2023/06/24 00:35:46;;;;;;;2.67;2.47;;;;;;;;;;5098298;28;20199;-59
2023/06/24 00:38:14;;;;;;;2.60;2.40;;;;;;;;;;5098174;28;20613;-59
2023/06/24 00:40:43;;;;;;;2.58;2.35;;;;;;;;;;5098379;28;20208;-60
2023/06/24 00:43:11;;;;;;;2.50;2.30;;;;;;;;;;5098178;28;20219;-60
2023/06/24 00:45:39;;;;;;;3.17;2.88;;;;;;;;;;5098125;28;20230;-59
2023/06/24 00:48:07;;;;;;;2.85;2.60;;;;;;;;;;5097598;28;20490;-59
2023/06/24 00:50:36;;;;;;;2.70;2.50;;;;;;;;;;5097793;28;20247;-59
2023/06/24 00:53:04;;;;;;;3.65;2.50;;;;;;;;;;5097859;28;20214;-59
2023/06/24 00:55:32;;;;;;;3.20;2.70;;;;;;;;;;5097611;28;20200;-59
2023/06/24 00:58:01;;;;;;;2.83;2.63;;;;;;;;;;5098147;28;20203;-59
2023/06/24 01:00:29;;;;;;;2.67;2.47;;;;;;;;;;5097508;28;20203;-59
2023/06/24 01:02:57;;;;;;;2.55;2.35;;;;;;;;;;5098060;28;20218;-59
2023/06/24 01:05:25;;;;;;;2.97;2.50;;;;;;;;;;5097696;28;20223;-59
2023/06/24 01:07:55;;;;;;;3.08;2.80;;;;;;;;;;5097508;28;20214;-59
2023/06/24 01:10:24;;;;;;;3.10;2.80;;;;;;;;;;5097414;28;20215;-59
2023/06/24 01:12:51;;;;;;;2.70;2.50;;;;;;;;;;5097496;28;20216;-59
2023/06/24 01:15:21;;;;;;;2.97;2.70;;;;;;;;;;5097374;28;20203;-59
2023/06/24 01:17:51;;;;;;;2.55;2.38;;;;;;;;;;5097426;28;20210;-59
2023/06/24 01:20:22;;;;;;;3.10;2.90;;;;;;;;;;5097150;28;20211;-60
2023/06/24 01:23:06;;;;;;;3.78;2.80;;;;;;;;;;5097588;28;20210;-60
2023/06/24 01:25:45;;;;;;;3.00;2.80;;;;;;;;;;5097132;28;20725;-59
2023/06/24 01:28:25;;;;;;;3.45;2.90;;;;;;;;;;5097641;28;20207;-59
2023/06/24 01:31:04;;;;;;;3.53;3.00;;;;;;;;;;5097130;28;20211;-59
2023/06/24 01:33:36;;;;;;;2.88;2.50;;;;;;;;;;5097079;28;20289;-59
2023/06/24 01:36:04;;;;;;;3.20;2.90;;;;;;;;;;5097519;28;20204;-59
2023/06/24 01:38:33;;;;;;;2.92;2.72;;;;;;;;;;5097044;28;20235;-59
2023/06/24 01:41:02;;;;;;;3.78;2.72;;;;;;;;;;5097404;28;20203;-59
2023/06/24 01:43:30;;;;;;;4.90;3.30;;;;;;;;;;5097538;28;20268;-59
2023/06/24 01:45:58;;;;;;;2.97;2.72;;;;;;;;;;5096884;28;20227;-59
2023/06/24 01:48:27;;;;;;;3.05;2.85;;;;;;;;;;5097169;28;20203;-59
2023/06/24 01:50:59;;;;;;;3.10;2.90;;;;;;;;;;5096991;28;20204;-60
2023/06/24 01:53:29;;;;;;;3.15;2.90;;;;;;;;;;5097306;28;20214;-59
2023/06/24 01:55:58;;;;;;;2.95;2.75;;;;;;;;;;5097375;28;20210;-59
2023/06/24 01:58:26;;;;;;;3.78;2.80;;;;;;;;;;5097306;28;20203;-59
2023/06/24 02:00:54;;;;;;;2.92;2.72;;;;;;;;;;5097326;28;20207;-59
2023/06/24 02:03:23;;;;;;;3.65;2.88;;;;;;;;;;5097398;28;20230;-59
2023/06/24 02:05:51;;;;;;;2.88;2.50;;;;;;;;;;5097233;28;20317;-59
2023/06/24 02:08:22;;;;;;;3.13;2.90;;;;;;;;;;5097235;28;20567;-60
2023/06/24 02:10:50;;;;;;;2.83;2.60;;;;;;;;;;5097104;28;20204;-59
2023/06/24 02:13:18;;;;;;;3.85;3.00;;;;;;;;;;5096918;28;20604;-59
2023/06/24 02:15:47;;;;;;;3.10;2.80;;;;;;;;;;5097387;28;20199;-59
2023/06/24 02:18:17;;;;;;;3.85;3.10;;;;;;;;;;5097250;28;20575;-59
2023/06/24 02:20:45;;;;;;;3.33;3.03;;;;;;;;;;5096916;28;20210;-59
2023/06/24 02:23:13;;;;;;;3.33;2.97;;;;;;;;;;5097085;28;20521;-59
2023/06/24 02:25:43;;;;;;;4.57;3.03;;;;;;;;;;5096919;28;20243;-59
2023/06/24 02:28:11;;;;;;;3.13;2.83;;;;;;;;;;5097249;28;20203;-59
2023/06/24 02:30:40;;;;;;;4.53;3.08;;;;;;;;;;5096807;28;20493;-59
2023/06/24 02:33:09;;;;;;;3.13;2.90;;;;;;;;;;5096600;28;20204;-60
2023/06/24 02:35:36;;;;;;;3.00;2.80;;;;;;;;;;5099449;28;20572;-59
2023/06/24 02:38:04;;;;;;;2.97;2.78;;;;;;;;;;5100096;28;20243;-59
2023/06/24 02:40:32;;;;;;;4.47;2.70;;;;;;;;;;5100390;28;20203;-59
2023/06/24 02:43:02;;;;;;;3.13;2.83;;;;;;;;;;5100579;28;20553;-59
2023/06/24 02:45:30;;;;;;;3.22;2.70;;;;;;;;;;5100245;28;20274;-59
2023/06/24 02:47:59;;;;;;;3.00;2.75;;;;;;;;;;5100288;28;20296;-59
2023/06/24 02:50:27;;;;;;;4.95;3.10;;;;;;;;;;5100165;28;20203;-59
2023/06/24 02:52:55;;;;;;;3.20;2.90;;;;;;;;;;5099930;28;20210;-59
2023/06/24 02:55:25;;;;;;;3.78;3.17;;;;;;;;;;5100147;28;20200;-59
2023/06/24 02:57:53;;;;;;;3.35;2.97;;;;;;;;;;5099909;28;20243;-59
2023/06/24 03:00:22;;;;;;;3.33;3.03;;;;;;;;;;5099936;28;20211;-59
2023/06/24 03:02:50;;;;;;;3.38;2.97;;;;;;;;;;5100328;28;20208;-59
2023/06/24 03:05:19;;;;;;;3.20;2.95;;;;;;;;;;5099878;28;20566;-59
2023/06/24 03:07:48;;;;;;;4.53;2.90;;;;;;;;;;5099886;28;20204;-59
2023/06/24 03:10:15;;;;;;;4.70;2.97;;;;;;;;;;5099612;28;20566;-59
2023/06/24 03:12:43;;;;;;;3.08;2.80;;;;;;;;;;5099446;28;20214;-59
2023/06/24 03:15:11;;;;;;;3.20;2.90;;;;;;;;;;5099843;28;20210;-59
2023/06/24 03:17:40;;;;;;;3.38;2.55;;;;;;;;;;5099684;28;20204;-59
2023/06/24 03:20:09;;;;;;;2.85;2.65;;;;;;;;;;5099932;28;20214;-59
2023/06/24 03:22:37;;;;;;;4.10;2.80;;;;;;;;;;5099682;28;20199;-59
2023/06/24 03:25:05;;;;;;;3.72;2.95;;;;;;;;;;5099525;28;20234;-59
2023/06/24 03:27:33;;;;;;;3.35;2.90;;;;;;;;;;5099613;28;20290;-60
2023/06/24 03:30:01;;;;;;;3.58;2.78;;;;;;;;;;5099755;28;20245;-59
2023/06/24 03:32:28;;;;;;;3.45;2.65;;;;;;;;;;5099444;28;20207;-59
2023/06/24 03:34:57;;;;;;;3.05;2.85;;;;;;;;;;5099684;28;20242;-59
2023/06/24 03:37:25;;;;;;;2.95;2.33;;;;;;;;;;5098746;28;20286;-59
2023/06/24 03:39:52;;;;;;;3.22;2.58;;;;;;;;;;5099171;28;20286;-59
2023/06/24 03:42:20;;;;;;;3.15;2.38;;;;;;;;;;5099594;28;20225;-59
2023/06/24 03:44:47;;;;;;;2.85;2.63;;;;;;;;;;5099591;28;20214;-59
2023/06/24 03:47:14;;;;;;;3.47;2.80;;;;;;;;;;5098218;28;20199;-59
2023/06/24 03:49:42;;;;;;;2.83;2.60;;;;;;;;;;5098974;28;20239;-59
2023/06/24 03:52:10;;;;;;;2.83;2.63;;;;;;;;;;5099409;28;20290;-59
2023/06/24 03:54:40;;;;;;;3.10;2.90;;;;;;;;;;5099218;28;20243;-59
2023/06/24 03:57:07;;;;;;;3.20;3.00;;;;;;;;;;5099071;28;20199;-59
2023/06/24 03:59:35;;;;;;;3.40;3.10;;;;;;;;;;5098778;28;20253;-59
2023/06/24 04:02:02;;;;;;;4.32;2.80;;;;;;;;;;5098955;28;20298;-59
2023/06/24 04:04:30;;;;;;;3.88;3.40;;;;;;;;;;5098940;28;20242;-59
2023/06/24 04:06:57;;;;;;;3.58;2.85;;;;;;;;;;5098990;28;20234;-59
2023/06/24 04:09:26;;;;;;;3.35;3.05;;;;;;;;;;5098967;28;20210;-59
2023/06/24 04:11:54;;;;;;;3.30;2.47;;;;;;;;;;5099118;28;20298;-59
2023/06/24 04:14:21;;;;;;;2.70;2.50;;;;;;;;;;5098518;28;20214;-59
2023/06/24 04:16:49;;;;;;;3.50;2.53;;;;;;;;;;5098679;28;20200;-59
2023/06/24 04:19:17;;;;;;;3.30;3.08;;;;;;;;;;5098548;28;20214;-59
2023/06/24 04:21:45;;;;;;;3.10;2.90;;;;;;;;;;5098590;28;20302;-59
2023/06/24 04:24:12;;;;;;;6.63;3.13;;;;;;;;;;5098286;28;20246;-59
2023/06/24 04:26:41;;;;;;;3.22;2.97;;;;;;;;;;5098511;28;20318;-59
2023/06/24 04:29:09;;;;;;;3.67;3.38;;;;;;;;;;5098242;28;20203;-59
2023/06/24 04:31:36;;;;;;;3.08;2.88;;;;;;;;;;5097934;28;20309;-59
2023/06/24 04:34:03;;;;;;;3.70;3.40;;;;;;;;;;5098106;28;20264;-59
2023/06/24 04:36:31;;;;;;;4.22;3.83;;;;;;;;;;5098634;28;20209;-59
2023/06/24 04:38:58;;;;;;;4.00;3.70;;;;;;;;;;5078060;28;20255;-59
2023/06/24 04:41:26;;;;;;;3.90;3.60;;;;;;;;;;5076693;28;20589;-59
2023/06/24 04:43:55;;;;;;;4.20;3.80;;;;;;;;;;5077835;28;20282;-59
2023/06/24 04:46:22;;;;;;;4.32;3.92;;;;;;;;;;5077814;28;20230;-59
2023/06/24 04:48:50;;;;;;;6.70;4.25;;;;;;;;;;5077661;28;20314;-59
2023/06/24 04:51:17;;;;;;;3.80;3.53;;;;;;;;;;5076984;28;20561;-59
2023/06/24 04:53:44;;;;;;;4.60;3.83;;;;;;;;;;5077372;28;20283;-60
2023/06/24 04:56:12;;;;;;;3.95;3.60;;;;;;;;;;5077780;28;20215;-59
2023/06/24 04:58:39;;;;;;;4.80;4.10;;;;;;;;;;5077208;28;20239;-59
2023/06/24 05:01:08;;;;;;;4.25;3.85;;;;;;;;;;5077627;28;20255;-60
2023/06/24 05:03:36;;;;;;;4.35;3.95;;;;;;;;;;5077199;28;20250;-59
2023/06/24 05:06:03;;;;;;;5.05;4.10;;;;;;;;;;5077266;28;20228;-59
2023/06/24 05:08:31;;;;;;;4.20;3.80;;;;;;;;;;5077465;28;20230;-59
2023/06/24 05:10:58;;;;;;;4.47;4.07;;;;;;;;;;5076776;28;20298;-59
2023/06/24 05:13:26;;;;;;;5.85;4.03;;;;;;;;;;5077598;28;20208;-59
2023/06/24 05:15:53;;;;;;;5.25;4.75;;;;;;;;;;5076933;28;20204;-59
2023/06/24 05:18:22;;;;;;;5.40;4.57;;;;;;;;;;5076567;28;20203;-59
2023/06/24 05:20:49;;;;;;;4.88;4.38;;;;;;;;;;5077168;28;20204;-59
2023/06/24 05:23:17;;;;;;;4.90;4.50;;;;;;;;;;5077023;28;20209;-59
2023/06/24 05:25:44;;;;;;;4.82;4.38;;;;;;;;;;5076699;28;20679;-59
2023/06/24 05:28:12;;;;;;;4.50;4.20;;;;;;;;;;5076757;28;20251;-59
2023/06/24 05:30:39;;;;;;;5.10;4.60;;;;;;;;;;5077012;28;20219;-59
2023/06/24 05:33:07;;;;;;;4.25;3.95;;;;;;;;;;5077274;28;20234;-59
2023/06/24 05:35:39;;;;;;;4.75;4.35;;;;;;;;;;5077174;28;20203;-59
2023/06/24 05:38:07;;;;;;;4.97;4.55;;;;;;;;;;5077048;28;20661;-59
2023/06/24 05:40:34;;;;;;;5.35;4.85;;;;;;;;;;5076540;28;20214;-59
2023/06/24 05:43:02;;;;;;;4.95;4.45;;;;;;;;;;5076661;28;20308;-59
2023/06/24 05:45:30;;;;;;;5.22;4.80;;;;;;;;;;5076848;28;20212;-60
2023/06/24 05:47:58;;;;;;;6.20;4.78;;;;;;;;;;5076669;28;20204;-59
2023/06/24 05:50:25;;;;;;;4.65;4.25;;;;;;;;;;5076678;28;20226;-59
2023/06/24 05:52:54;;;;;;;4.97;4.65;;;;;;;;;;5077169;28;20211;-59
2023/06/24 05:55:21;;;;;;;4.00;3.70;;;;;;;;;;5076291;28;20204;-59
2023/06/24 05:57:49;;;;;;;4.40;4.10;;;;;;;;;;5076488;28;20295;-59
2023/06/24 06:00:16;;;;;;;5.57;5.07;;;;;;;;;;5076842;28;20208;-60
2023/06/24 06:02:44;;;;;;;5.45;4.95;;;;;;;;;;5076890;28;20208;-60
2023/06/24 06:05:11;;;;;;;5.50;5.03;;;;;;;;;;5076351;28;20215;-60
2023/06/24 06:07:39;;;;;;;5.18;4.78;;;;;;;;;;5076555;28;20721;-59
2023/06/24 06:10:09;;;;;;;5.72;5.22;;;;;;;;;;5079315;28;20576;-59
2023/06/24 06:12:36;;;;;;;5.70;5.20;;;;;;;;;;5080629;28;20204;-59
2023/06/24 06:15:04;;;;;;;5.45;4.95;;;;;;;;;;5080516;28;20204;-59
2023/06/24 06:17:31;;;;;;;5.65;5.15;;;;;;;;;;5080481;28;20576;-59
2023/06/24 06:19:59;;;;;;;5.53;4.97;;;;;;;;;;5080056;28;20294;-59
2023/06/24 06:22:26;;;;;;;5.00;4.50;;;;;;;;;;5079310;28;20307;-59
2023/06/24 06:24:54;;;;;;;5.00;4.60;;;;;;;;;;5079352;28;20239;-59
2023/06/24 06:27:22;;;;;;;5.20;4.70;;;;;;;;;;5079377;28;20228;-59
2023/06/24 06:29:50;;;;;;;5.15;4.75;;;;;;;;;;5080242;28;20204;-59
2023/06/24 06:32:17;;;;;;;6.07;5.57;;;;;;;;;;5079584;28;20308;-59
2023/06/24 06:34:45;;;;;;;5.20;4.80;;;;;;;;;;5079701;28;20447;-59
2023/06/24 06:37:12;;;;;;;5.47;5.00;;;;;;;;;;5084909;28;20238;-59
2023/06/24 06:39:40;;;;;;;5.30;4.90;;;;;;;;;;5099473;28;20214;-60
2023/06/24 06:42:07;;;;;;;5.18;4.78;;;;;;;;;;5099426;28;20195;-59
2023/06/24 06:44:36;;;;;;;6.03;5.40;;;;;;;;;;5099890;28;20211;-59
2023/06/24 06:47:04;;;;;;;5.47;4.97;;;;;;;;;;5099605;28;20794;-59
2023/06/24 06:49:31;;;;;;;6.32;4.80;;;;;;;;;;5099264;28;20295;-59
2023/06/24 06:51:59;;;;;;;5.68;5.18;;;;;;;;;;5099709;28;20611;-59
2023/06/24 06:54:26;;;;;;;5.22;4.72;;;;;;;;;;5099785;28;20210;-59
2023/06/24 06:56:55;;;;;;;5.40;5.00;;;;;;;;;;5099198;28;20689;-59
2023/06/24 06:59:22;;;;;;;5.20;4.80;;;;;;;;;;5098992;28;20203;-59
2023/06/24 07:01:51;;;;;;;5.35;4.95;;;;;;;;;;5099007;28;20490;-59
2023/06/24 07:04:19;;;;;;;5.15;4.65;;;;;;;;;;5098659;28;20311;-60
2023/06/24 07:06:46;;;;;;;4.80;4.40;;;;;;;;;;5098691;28;20223;-59
2023/06/24 07:09:14;;;;;;;5.38;4.85;;;;;;;;;;5099000;28;20571;-59
2023/06/24 07:11:42;;;;;;;5.20;4.70;;;;;;;;;;5098998;28;20310;-60
2023/06/24 07:14:09;;;;;;;5.10;4.70;;;;;;;;;;5098995;28;20246;-60
2023/06/24 07:16:37;;;;;;;5.45;5.05;;;;;;;;;;5098847;28;20196;-60
2023/06/24 07:19:06;;;;;;;5.43;5.00;;;;;;;;;;5098495;28;20417;-59
2023/06/24 07:21:34;;;;;;;5.38;4.88;;;;;;;;;;5099396;28;20242;-59
2023/06/24 07:24:01;;;;;;;5.20;4.75;;;;;;;;;;5099330;28;20204;-59
2023/06/24 07:26:30;;;;;;;5.45;5.05;;;;;;;;;;5098724;28;20223;-59
2023/06/24 07:28:58;;;;;;;4.70;4.38;;;;;;;;;;5087388;28;20204;-59
2023/06/24 07:31:26;;;;;;;6.43;5.20;;;;;;;;;;5078591;28;20219;-59
2023/06/24 07:33:53;;;;;;;4.90;4.50;;;;;;;;;;5077953;28;20291;-60
2023/06/24 07:36:22;;;;;;;4.80;4.40;;;;;;;;;;5077929;28;20210;-59
2023/06/24 07:38:49;;;;;;;4.63;4.30;;;;;;;;;;5078051;28;20232;-59
2023/06/24 07:41:17;;;;;;;4.53;4.18;;;;;;;;;;5078521;28;20294;-59
2023/06/24 07:43:44;;;;;;;5.32;4.75;;;;;;;;;;5078328;28;20204;-59
2023/06/24 07:46:12;;;;;;;4.80;4.40;;;;;;;;;;5078179;28;20200;-59
2023/06/24 07:48:39;;;;;;;4.88;4.47;;;;;;;;;;5077686;28;20239;-59
2023/06/24 07:51:07;;;;;;;4.55;4.25;;;;;;;;;;5077198;28;20591;-59
2023/06/24 07:53:36;;;;;;;5.18;4.78;;;;;;;;;;5077763;28;20287;-59
2023/06/24 07:56:03;;;;;;;4.78;4.38;;;;;;;;;;5076841;28;20299;-59
2023/06/24 07:58:31;;;;;;;4.60;4.28;;;;;;;;;;5077714;28;20200;-59
2023/06/24 08:00:58;;;;;;;4.30;4.00;;;;;;;;;;5077134;28;20241;-59
2023/06/24 08:03:26;;;;;;;4.35;4.05;;;;;;;;;;5076370;28;20295;-59
2023/06/24 08:05:53;;;;;;;4.30;3.90;;;;;;;;;;5077181;28;20644;-59
2023/06/24 08:08:21;;;;;;;3.85;3.55;;;;;;;;;;5076799;28;20268;-59
2023/06/24 08:10:49;;;;;;;4.20;3.90;;;;;;;;;;5077066;28;20307;-59
2023/06/24 08:13:17;;;;;;;4.05;3.75;;;;;;;;;;5077300;28;20205;-59
2023/06/24 08:15:45;;;;;;;4.38;3.97;;;;;;;;;;5076619;28;20200;-59
2023/06/24 08:18:13;;;;;;;4.20;3.90;;;;;;;;;;5076970;28;20239;-59
2023/06/24 08:20:40;;;;;;;3.90;3.70;;;;;;;;;;5076255;28;20577;-59
2023/06/24 08:23:09;;;;;;;3.65;3.35;;;;;;;;;;5077365;28;20215;-59
2023/06/24 08:25:54;;;;;;;4.15;3.85;;;;;;;;;;5076923;28;20208;-59
2023/06/24 08:28:21;;;;;;;4.18;3.83;;;;;;;;;;5076721;28;20220;-59
2023/06/24 08:30:49;;;;;;;4.25;3.95;;;;;;;;;;5075905;28;20207;-59
2023/06/24 08:33:16;;;;;;;4.40;4.00;;;;;;;;;;5076099;28;20230;-59
2023/06/24 08:35:43;;;;;;;5.30;4.25;;;;;;;;;;5075722;28;20206;-59
2023/06/24 08:38:11;;;;;;;4.10;3.80;;;;;;;;;;5075560;28;20236;-59
2023/06/24 08:40:39;;;;;;;3.92;3.63;;;;;;;;;;5076086;28;20214;-59
2023/06/24 08:43:09;;;;;;;4.90;4.40;;;;;;;;;;5076312;28;20219;-59
2023/06/24 08:45:36;;;;;;;4.22;3.83;;;;;;;;;;5075609;28;20577;-59
2023/06/24 08:48:04;;;;;;;4.00;3.70;;;;;;;;;;5075987;28;20235;-59
2023/06/24 08:50:34;;;;;;;3.95;3.65;;;;;;;;;;5075534;28;20204;-59
2023/06/24 08:53:04;;;;;;;3.88;3.58;;;;;;;;;;5082409;28;20210;-59
2023/06/24 08:55:32;;;;;;;4.15;3.75;;;;;;;;;;5095762;28;20297;-59
2023/06/24 08:58:00;;;;;;;4.03;3.63;;;;;;;;;;5096453;28;20595;-59
2023/06/24 09:00:29;;;;;;;4.05;3.75;;;;;;;;;;5096233;28;20306;-59
2023/06/24 09:02:58;;;;;;;4.07;3.78;;;;;;;;;;5096224;28;20575;-60
2023/06/24 09:05:25;;;;;;;3.95;3.65;;;;;;;;;;5095515;28;20446;-59
2023/06/24 09:07:52;;;;;;;3.80;3.50;;;;;;;;;;5095470;28;20314;-59
2023/06/24 09:10:33;;;;;;;3.90;3.60;;;;;;;;;;5095970;28;20199;-59
2023/06/24 09:13:01;;;;;;;3.45;3.15;;;;;;;;;;5096023;28;20640;-59
2023/06/24 09:15:32;;;;;;;4.03;3.70;;;;;;;;;;5096519;28;20204;-59
2023/06/24 09:18:00;;;;;;;4.40;3.63;;;;;;;;;;5095868;28;20294;-59
2023/06/24 09:20:28;;;;;;;4.00;3.70;;;;;;;;;;5094982;28;20761;-59
2023/06/24 09:23:00;;;;;;;4.03;3.72;;;;;;;;;;5094439;28;20239;-59
2023/06/24 09:25:27;;;;;;;4.10;3.80;;;;;;;;;;5095395;28;20203;-59
2023/06/24 09:27:56;;;;;;;4.25;3.85;;;;;;;;;;5094749;28;20220;-59
2023/06/24 09:30:24;;;;;;;3.65;3.42;;;;;;;;;;5094952;28;20573;-59
2023/06/24 09:32:53;;;;;;;4.10;3.80;;;;;;;;;;5094393;28;20211;-59
2023/06/24 09:35:21;;;;;;;4.05;3.65;;;;;;;;;;5095846;28;20243;-59
2023/06/24 09:37:53;;;;;;;3.67;3.38;;;;;;;;;;5094892;28;20215;-59
2023/06/24 09:40:21;;;;;;;3.60;3.30;;;;;;;;;;5095199;28;20447;-59
2023/06/24 09:42:52;;;;;;;3.38;3.17;;;;;;;;;;5095306;28;20203;-59
2023/06/24 09:45:24;;;;;;;4.00;3.60;;;;;;;;;;5097688;28;20214;-59
2023/06/24 09:47:52;;;;;;;3.90;3.60;;;;;;;;;;5098959;28;20326;-59
2023/06/24 09:50:20;;;;;;;3.55;3.35;;;;;;;;;;5098022;28;20298;-59
2023/06/24 09:52:48;;;;;;;3.55;3.28;;;;;;;;;;5098242;28;20207;-60
2023/06/24 09:55:16;;;;;;;4.10;3.80;;;;;;;;;;5098857;28;20203;-59
2023/06/24 09:57:46;;;;;;;4.15;3.85;;;;;;;;;;5098999;28;20571;-59
2023/06/24 10:00:16;;;;;;;3.83;3.40;;;;;;;;;;5098605;28;20207;-59
2023/06/24 10:02:44;;;;;;;4.05;3.75;;;;;;;;;;5098114;28;20204;-59
2023/06/24 10:05:13;;;;;;;3.97;3.67;;;;;;;;;;5098892;28;20595;-59
2023/06/24 10:07:41;;;;;;;3.60;3.40;;;;;;;;;;5099564;28;20265;-59
2023/06/24 10:10:09;;;;;;;3.72;3.42;;;;;;;;;;5099247;28;20290;-59
2023/06/24 10:12:37;;;;;;;4.80;4.40;;;;;;;;;;5098855;28;20286;-59
2023/06/24 10:15:05;;;;;;;4.40;4.10;;;;;;;;;;5099580;28;20341;-59
2023/06/24 10:17:33;;;;;;;3.83;3.53;;;;;;;;;;5098827;28;20258;-59
2023/06/24 10:20:04;;;;;;;4.22;3.90;;;;;;;;;;5098658;28;20299;-59
2023/06/24 10:22:33;;;;;;;4.18;3.88;;;;;;;;;;5098166;28;20304;-59
2023/06/24 10:25:01;;;;;;;4.22;3.90;;;;;;;;;;5098465;28;20203;-59
2023/06/24 10:27:32;;;;;;;4.13;3.83;;;;;;;;;;5098782;28;20269;-60
2023/06/24 10:30:03;;;;;;;3.63;3.33;;;;;;;;;;5098246;28;20208;-59
2023/06/24 10:32:41;;;;;;;4.00;3.70;;;;;;;;;;5098716;28;20439;-59
2023/06/24 10:35:08;;;;;;;4.15;3.85;;;;;;;;;;5098994;28;20218;-59
2023/06/24 10:37:37;;;;;;;3.75;3.45;;;;;;;;;;5089588;28;20228;-59
2023/06/24 10:40:05;;;;;;;3.95;3.65;;;;;;;;;;5079448;28;20201;-59
2023/06/24 10:42:41;;;;;;;4.30;4.00;;;;;;;;;;5078625;28;20768;-59
2023/06/24 10:45:19;;;;;;;4.25;3.85;;;;;;;;;;5078204;28;20214;-59
2023/06/24 10:47:47;;;;;;;3.63;3.33;;;;;;;;;;5078066;28;20239;-59
2023/06/24 10:50:15;;;;;;;3.35;3.15;;;;;;;;;;5077609;28;20230;-59
2023/06/24 10:52:45;;;;;;;3.55;3.25;;;;;;;;;;5078327;28;20240;-59
2023/06/24 10:55:14;;;;;;;4.15;3.75;;;;;;;;;;5076997;28;20625;-59
2023/06/24 10:57:42;;;;;;;3.90;3.60;;;;;;;;;;5077644;28;20211;-59
2023/06/24 11:00:10;;;;;;;3.47;3.28;;;;;;;;;;5078089;28;20295;-59
2023/06/24 11:02:37;;;;;;;3.78;3.47;;;;;;;;;;5078301;28;20204;-59
2023/06/24 11:05:06;;;;;;;3.67;3.38;;;;;;;;;;5078313;28;20216;-59
2023/06/24 11:07:34;;;;;;;4.20;3.85;;;;;;;;;;5077892;28;20224;-59
2023/06/24 11:10:05;;;;;;;3.60;3.30;;;;;;;;;;5077783;28;20730;-60
2023/06/24 11:12:33;;;;;;;3.80;3.50;;;;;;;;;;5077824;28;20207;-59
2023/06/24 11:15:03;;;;;;;4.07;3.78;;;;;;;;;;5077426;28;20671;-59
2023/06/24 11:17:31;;;;;;;4.22;3.85;;;;;;;;;;5078519;28;20287;-59
2023/06/24 11:19:59;;;;;;;3.60;3.30;;;;;;;;;;5077781;28;20505;-59
2023/06/24 11:22:27;;;;;;;3.70;3.40;;;;;;;;;;5077645;28;20302;-59
2023/06/24 11:24:55;;;;;;;4.00;3.70;;;;;;;;;;5077767;28;20284;-59
2023/06/24 11:27:27;;;;;;;3.70;3.30;;;;;;;;;;5077018;28;20287;-59
2023/06/24 11:29:55;;;;;;;3.80;3.50;;;;;;;;;;5077116;28;20295;-59
2023/06/24 11:32:23;;;;;;;3.45;3.22;;;;;;;;;;5077417;28;20319;-59
2023/06/24 11:34:50;;;;;;;3.88;3.58;;;;;;;;;;5076754;28;20556;-60
2023/06/24 11:37:19;;;;;;;3.58;3.28;;;;;;;;;;5083411;28;20227;-59
2023/06/24 11:39:47;;;;;;;3.63;3.40;;;;;;;;;;5097316;28;20286;-59
2023/06/24 11:42:15;;;;;;;3.65;3.35;;;;;;;;;;5096624;28;20214;-59
2023/06/24 11:44:44;;;;;;;3.63;3.33;;;;;;;;;;5097540;28;20290;-59
2023/06/24 11:47:12;;;;;;;3.85;3.28;;;;;;;;;;5097030;28;20196;-60
2023/06/24 11:49:49;;;;;;;3.53;3.22;;;;;;;;;;5097148;28;20630;-60
2023/06/24 11:52:17;;;;;;;3.60;3.30;;;;;;;;;;5096029;28;20579;-60
2023/06/24 11:54:45;;;;;;;3.63;3.33;;;;;;;;;;5096633;28;20235;-59
2023/06/24 11:57:12;;;;;;;3.78;3.47;;;;;;;;;;5096418;28;20214;-59
2023/06/24 11:59:40;;;;;;;3.65;3.35;;;;;;;;;;5097107;28;20207;-59
2023/06/24 12:02:15;;;;;;;3.35;3.15;;;;;;;;;;5096954;28;20556;-59
2023/06/24 12:04:45;;;;;;;3.70;3.40;;;;;;;;;;5096420;28;20204;-59
2023/06/24 12:07:13;;;;;;;3.55;3.25;;;;;;;;;;5094792;28;20769;-59
2023/06/24 12:09:41;;;;;;;3.45;3.20;;;;;;;;;;5096322;28;20594;-59
2023/06/24 12:12:08;;;;;;;3.05;2.85;;;;;;;;;;5097025;28;20210;-59
2023/06/24 12:14:36;;;;;;;3.25;3.00;;;;;;;;;;5096819;28;20214;-59
2023/06/24 12:17:03;;;;;;;3.35;3.05;;;;;;;;;;5096629;28;20294;-59
2023/06/24 12:19:32;;;;;;;4.00;3.20;;;;;;;;;;5096398;28;20206;-59
2023/06/24 12:22:00;;;;;;;3.42;3.20;;;;;;;;;;5097151;28;20255;-59
2023/06/24 12:24:27;;;;;;;3.58;3.28;;;;;;;;;;5096487;28;20203;-59
2023/06/24 12:26:55;;;;;;;3.75;3.22;;;;;;;;;;5096452;28;20216;-59
2023/06/24 12:29:23;;;;;;;4.47;3.45;;;;;;;;;;5096194;28;20223;-59
2023/06/24 12:31:50;;;;;;;4.45;3.17;;;;;;;;;;5096606;28;20199;-59
2023/06/24 12:34:18;;;;;;;3.63;3.25;;;;;;;;;;5096767;28;20538;-59
2023/06/24 12:36:47;;;;;;;5.05;3.30;;;;;;;;;;5096311;28;20211;-59
2023/06/24 12:39:14;;;;;;;4.22;3.15;;;;;;;;;;5096479;28;20302;-59
2023/06/24 12:41:42;;;;;;;3.65;3.08;;;;;;;;;;5095618;28;20203;-59
2023/06/24 12:44:09;;;;;;;4.68;3.08;;;;;;;;;;5096283;28;20302;-59
2023/06/24 12:46:36;;;;;;;4.63;3.00;;;;;;;;;;5095682;28;20722;-59
2023/06/24 12:49:04;;;;;;;3.35;3.05;;;;;;;;;;5095538;28;20220;-59
2023/06/24 12:51:31;;;;;;;3.55;3.10;;;;;;;;;;5095933;28;20203;-59
2023/06/24 12:54:00;;;;;;;3.30;3.00;;;;;;;;;;5095926;28;20210;-59
2023/06/24 12:56:28;;;;;;;3.53;3.10;;;;;;;;;;5096104;28;20195;-59
2023/06/24 12:58:55;;;;;;;3.42;3.08;;;;;;;;;;5096104;28;20200;-59
2023/06/24 13:01:23;;;;;;;3.60;3.30;;;;;;;;;;5096393;28;20298;-59
2023/06/24 13:03:50;;;;;;;4.72;3.10;;;;;;;;;;5096004;28;20196;-59
2023/06/24 13:06:17;;;;;;;3.58;3.08;;;;;;;;;;5087582;28;20477;-59
2023/06/24 13:08:45;;;;;;;3.33;3.03;;;;;;;;;;5095868;28;20223;-59
2023/06/24 13:11:14;;;;;;;3.20;2.90;;;;;;;;;;5095811;28;20207;-59
2023/06/24 13:13:41;;;;;;;3.65;3.28;;;;;;;;;;5094893;28;20235;-59
2023/06/24 13:16:09;;;;;;;3.47;3.17;;;;;;;;;;5095455;28;20315;-59
2023/06/24 13:18:36;;;;;;;2.90;2.70;;;;;;;;;;5095566;28;20204;-59
2023/06/24 13:21:04;;;;;;;3.97;3.45;;;;;;;;;;5095767;28;20707;-59
2023/06/24 13:23:32;;;;;;;2.97;2.78;;;;;;;;;;5096331;28;20200;-59
2023/06/24 13:25:59;;;;;;;3.13;2.92;;;;;;;;;;5095300;28;20206;-59
2023/06/24 13:28:28;;;;;;;3.40;3.10;;;;;;;;;;5095107;28;20233;-59
2023/06/24 13:30:56;;;;;;;3.30;3.00;;;;;;;;;;5094665;28;20230;-59
2023/06/24 13:33:23;;;;;;;2.90;2.70;;;;;;;;;;5095080;28;20298;-59
2023/06/24 13:35:51;;;;;;;3.45;3.15;;;;;;;;;;5095250;28;20595;-59
2023/06/24 13:38:18;;;;;;;3.50;3.20;;;;;;;;;;5095426;28;20646;-59
2023/06/24 13:40:46;;;;;;;3.13;2.92;;;;;;;;;;5095005;28;20242;-59
2023/06/24 13:43:13;;;;;;;3.10;2.90;;;;;;;;;;5095676;28;20274;-59
2023/06/24 13:45:42;;;;;;;3.42;3.13;;;;;;;;;;5095567;28;20210;-59
2023/06/24 13:48:09;;;;;;;3.47;3.10;;;;;;;;;;5095425;28;20250;-59
2023/06/24 13:50:37;;;;;;;3.25;3.05;;;;;;;;;;5095156;28;20286;-59
2023/06/24 13:53:04;;;;;;;3.50;3.20;;;;;;;;;;5094511;28;20205;-59
2023/06/24 13:55:32;;;;;;;3.17;2.95;;;;;;;;;;5095442;28;20203;-59
2023/06/24 13:57:59;;;;;;;3.63;3.30;;;;;;;;;;5094434;28;20200;-59
2023/06/24 14:00:27;;;;;;;3.10;2.88;;;;;;;;;;5094854;28;20298;-59
2023/06/24 14:02:55;;;;;;;3.50;3.17;;;;;;;;;;5094342;28;20334;-59
2023/06/24 14:05:23;;;;;;;3.40;3.20;;;;;;;;;;5095305;28;20199;-59
2023/06/24 14:07:50;;;;;;;3.50;3.20;;;;;;;;;;5094761;28;20308;-59
2023/06/24 14:10:18;;;;;;;3.25;2.90;;;;;;;;;;5094286;28;20227;-59
2023/06/24 14:12:45;;;;;;;3.55;3.25;;;;;;;;;;5094506;28;20294;-59
2023/06/24 14:15:12;;;;;;;3.40;3.20;;;;;;;;;;5094514;28;20239;-59
2023/06/24 14:17:40;;;;;;;3.45;3.15;;;;;;;;;;5093776;28;20239;-59
2023/06/24 14:20:10;;;;;;;3.25;3.00;;;;;;;;;;5094357;28;20200;-59
2023/06/24 14:22:37;;;;;;;3.40;3.10;;;;;;;;;;5094647;28;20302;-59
2023/06/24 14:25:05;;;;;;;3.28;3.08;;;;;;;;;;5093706;28;20241;-59
2023/06/24 14:27:33;;;;;;;3.30;3.10;;;;;;;;;;5094538;28;20293;-59
2023/06/24 14:30:00;;;;;;;3.33;3.03;;;;;;;;;;5093613;28;20227;-59
2023/06/24 14:32:27;;;;;;;3.33;3.03;;;;;;;;;;5097562;28;20578;-59
2023/06/24 14:34:55;;;;;;;3.90;3.50;;;;;;;;;;5098198;28;20294;-59
2023/06/24 14:37:24;;;;;;;3.30;3.10;;;;;;;;;;5098155;28;20334;-59
2023/06/24 14:39:51;;;;;;;3.40;3.10;;;;;;;;;;5098588;28;20790;-59
2023/06/24 14:42:19;;;;;;;3.67;3.38;;;;;;;;;;5089764;28;20286;-59
2023/06/24 14:44:46;;;;;;;3.45;3.15;;;;;;;;;;5098342;28;20203;-59
2023/06/24 14:47:13;;;;;;;3.58;3.28;;;;;;;;;;5098600;28;20200;-59
2023/06/24 14:49:41;;;;;;;3.10;2.90;;;;;;;;;;5098055;28;20318;-59